Hauptseite
METAR-TAF:

METAR-TAF

Flughäfen :

Bournemouth Airport

Bournemouth, England

Breite: 50-47N, Länge: 001-50W, Höhe: 11 m

Beobachtung

Neuester Wetterbericht von vor 41 Minuten, um 14:20 UTC
Wind 4 kt aus unterschiedlichen Richtungen
Temperatur 22°C
Luftfeuchtigkeit 38%
Luftdruck 1027 hPa
Sichtweite 10 km oder mehr
Leicht bewölkt in der Höhe von 3600 ft
Aufgelockert bewölkt in der Höhe von 4900 ft

METAR: EGHH 111420Z VRB04KT 9999 FEW036 SCT049 22/07 Q1027

Zeit: 16:01 (15:01 UTC)

Prognose

Neuester Wetterbericht von vor 1 Stunde und 7 Minuten, um 13:54 UTC
Gültige Prognose vom 11 um 15 UTC bis 11 um 21 UTC
Wind 10 kt aus Südwest
Sichtweite 10 km oder mehr
Leicht bewölkt in der Höhe von 4500 ft
Wahrscheinlichkeit 30% :
Zeitweise
vom 11 um 15 UTC bis 11 um 18 UTC
Sichtweite: 8000 m
Regenschauer

TAF: EGHH 111354Z 1115/1121 22010KT 9999 FEW045 PROB30 TEMPO 1115/1118 8000 -SHRA

Wetterbeobachtungen und Prognosen von mehr als 4000 Flughäfen (METAR und TAF Bericht).

Die verfügbaren Stationen werden durch gelbe und rote Markierungen auf der Karte dargestellt.

Führen Sie die Maus auf sie, um den Namen der Station zu sehen.

Darauf klicken, um die Beobachtung von Wetterbeobachtungen und Prognosen zu sehen.

Um die Karte zu ändern : klicken Sie auf den grünen Tasten mit einem schwarzen Kreuz Zum Vergrößern, auf den grünen Button mit einem Gedankenstrich zu verkleinern, oder auf die grünen Pfeile für benachbarte Karten.


METAR-TAF: